Time;durP1;ratioP1;P1;durP2;ratioP2;P2;SDS_P1;SDS_P2;PMS_P1;PMS_P2;Temp;Humidity;BMP_temperature;BMP_pressure;BME280_temperature;BME280_humidity;BME280_pressure;Samples;Min_cycle;Max_cycle;Signal;HPM_P1;HPM_P2
2022/05/30 05:19:09;;;;;;;2.63;2.43;;;12.10;70.30;;;12.70;49.65;98110.13;5538918;23;99129;-77
2022/05/30 05:25:22;;;;;;;3.23;2.67;;;10.80;69.30;;;12.71;50.07;98108.19;4922988;28;116160;-78
2022/05/30 05:31:34;;;;;;;6.23;3.10;;;10.80;69.80;;;12.64;49.99;98113.47;4922190;28;125580;-77
2022/05/30 05:37:47;;;;;;;5.93;3.00;;;10.30;69.50;;;12.72;50.33;98127.22;4922381;28;116072;-83
2022/05/30 05:47:37;;;;;;;3.67;2.53;;;10.30;69.60;;;12.88;50.21;98141.22;4922389;28;115340;-78
2022/05/30 05:53:48;;;;;;;4.03;2.90;;;10.90;70.50;;;13.02;50.04;98133.38;4921868;28;125182;-77
2022/05/30 05:59:56;;;;;;;4.50;2.83;;;10.50;70.00;;;13.10;50.17;98137.22;4922186;28;115351;-78
2022/05/30 07:47:07;;;;;;;2.57;2.00;;;15.30;68.00;;;16.08;45.68;98158.19;4887061;28;96565;-90
2022/05/30 07:53:16;;;;;;;2.37;1.90;;;15.50;67.60;;;16.25;45.01;98162.53;4902979;28;125074;-79
2022/05/30 07:59:26;;;;;;;4.27;2.00;;;15.60;66.80;;;16.44;44.51;98156.19;4903175;28;115447;-79
2022/05/30 08:16:00;;;;;;;4.07;2.13;;;16.00;64.00;;;16.66;43.06;98154.63;5463880;23;1413407;-87
2022/05/30 08:22:10;;;;;;;4.03;1.80;;;16.10;63.80;;;16.77;43.12;98155.66;4884931;28;115343;-83
2022/05/30 08:28:20;;;;;;;6.37;2.73;;;16.10;62.80;;;16.94;42.07;98153.56;4884494;28;126367;-92
2022/05/30 08:38:18;;;;;;;7.03;2.07;;;16.30;60.20;;;16.99;40.53;98156.06;4865631;28;115930;-81
2022/05/30 08:44:30;;;;;;;2.00;1.50;;;16.40;59.70;;;17.15;40.22;98151.16;4865290;28;124799;-93
2022/05/30 08:50:58;;;;;;;2.07;1.77;;;16.50;58.50;;;17.31;39.84;98151.03;4865554;28;115014;-82
2022/05/30 08:57:35;;;;;;;4.03;1.67;;;16.80;58.20;;;17.41;38.11;98152.41;5028045;23;124735;-94
2022/05/30 09:04:17;;;;;;;2.43;1.30;;;15.10;53.70;;;17.51;38.21;98134.97;4903275;28;114389;-89
2022/05/30 09:18:25;;;;;;;2.33;1.30;;;15.30;54.00;;;17.84;37.42;98142.72;4901244;28;114981;-93
2022/05/30 09:21:14;;;;;;;4.40;1.53;;;16.10;54.00;;;17.89;36.76;98138.78;4901693;28;122600;-94
2022/05/30 09:23:41;;;;;;;2.23;1.63;;;17.30;53.70;;;17.98;36.91;98139.31;4893872;28;123843;-93
2022/05/30 09:26:22;;;;;;;3.00;1.67;;;17.40;54.50;;;18.03;36.47;98143.78;4881223;28;112155;-94
2022/05/30 09:33:04;;;;;;;1.97;1.50;;;17.50;52.60;;;18.10;36.40;98141.88;4899866;28;125141;-94
2022/05/30 09:36:10;;;;;;;1.87;1.50;;;16.80;53.00;;;18.15;35.92;98137.16;4900400;28;122348;-93
2022/05/30 09:39:00;;;;;;;1.60;1.40;;;17.50;52.30;;;18.22;35.95;98142.84;4880981;28;113668;-93
2022/05/30 09:49:48;;;;;;;2.03;1.37;;;17.60;51.60;;;18.10;35.26;98133.47;4897325;28;124302;-94
2022/05/30 09:52:34;;;;;;;1.43;1.23;;;17.50;51.10;;;18.15;35.46;98137.16;4879884;28;112969;-94
2022/05/30 09:55:35;;;;;;;2.00;1.30;;;17.60;51.20;;;18.21;35.04;98139.22;4893899;28;113635;-95
2022/05/30 10:01:50;;;;;;;2.17;1.27;;;17.70;50.60;;;18.28;34.05;98138.50;4881061;29;124670;-94
2022/05/30 10:05:01;;;;;;;3.00;1.77;;;17.70;49.50;;;18.29;33.19;98129.72;4879999;29;115062;-93
2022/05/30 10:11:10;;;;;;;4.53;1.50;;;17.80;48.40;;;18.42;32.72;98137.88;4883793;28;125160;-94
2022/05/30 10:17:35;;;;;;;1.90;1.60;;;17.90;47.80;;;18.44;33.19;98136.31;4885041;28;115202;-94
2022/05/30 10:31:10;;;;;;;3.20;1.60;;;18.00;46.80;;;18.61;32.09;98136.91;4920782;28;114616;-94
2022/05/30 10:38:02;;;;;;;3.47;1.40;;;18.10;45.30;;;18.73;31.92;98137.47;4923314;28;125104;-90
2022/05/30 10:41:04;;;;;;;1.57;1.10;;;18.20;45.50;;;18.88;31.36;98129.22;4916516;28;124512;-94
2022/05/30 10:43:56;;;;;;;2.30;1.30;;;18.30;45.00;;;18.98;29.50;98136.94;4901570;28;117577;-80
2022/05/30 10:54:46;;;;;;;2.00;1.33;;;18.60;43.40;;;19.13;29.91;98132.28;4904397;28;124809;-94
2022/05/30 10:57:39;;;;;;;1.90;1.40;;;18.60;42.20;;;19.24;29.93;98143.59;4808273;29;115000;-94
2022/05/30 11:04:26;;;;;;;2.13;1.37;;;18.80;43.00;;;19.36;29.54;98135.69;4791001;29;125281;-79
2022/05/30 11:11:31;;;;;;;1.77;1.40;;;18.90;42.50;;;19.57;29.52;98148.25;4790948;29;115135;-89
2022/05/30 11:14:23;;;;;;;3.50;1.40;;;19.00;42.20;;;19.70;29.29;98146.00;4808727;29;114665;-88
2022/05/30 11:20:38;;;;;;;2.43;1.67;;;19.20;40.40;;;19.86;28.64;98138.09;4824969;29;124613;-94
2022/05/30 11:27:37;;;;;;;1.30;1.10;;;19.40;40.50;;;20.04;27.74;98138.19;4801353;29;114964;-95
2022/05/30 11:38:06;;;;;;;1.50;1.23;;;19.70;39.90;;;20.46;27.55;98143.19;4905519;28;114471;-94
2022/05/30 11:40:37;;;;;;;1.80;1.40;;;19.90;39.70;;;20.61;26.86;98155.34;4885078;28;113357;-93
2022/05/30 11:43:30;;;;;;;2.83;1.23;;;20.00;38.90;;;20.71;26.72;98148.13;4899922;28;123495;-93
2022/05/30 11:50:22;;;;;;;6.50;1.40;;;20.20;35.90;;;20.83;25.87;98155.41;4882383;28;116193;-94
2022/05/30 11:53:21;;;;;;;1.83;1.20;;;20.40;36.80;;;20.86;26.20;98151.78;4867069;29;114288;-93
2022/05/30 11:55:59;;;;;;;2.50;1.20;;;20.40;37.50;;;20.93;26.54;98146.22;4884323;28;123547;-93
2022/05/30 11:58:55;;;;;;;2.70;1.23;;;20.40;37.60;;;21.04;25.84;98146.22;4897354;28;124091;-94
2022/05/30 12:01:27;;;;;;;2.50;1.40;;;20.50;37.10;;;21.07;25.66;98146.22;4885662;28;113189;-95
2022/05/30 12:04:17;;;;;;;3.67;1.40;;;20.50;36.60;;;21.03;25.56;98136.97;4872472;28;114032;-95
2022/05/30 12:06:58;;;;;;;1.53;1.10;;;20.60;36.30;;;21.03;25.89;98145.41;4905424;28;124039;-94
2022/05/30 12:09:41;;;;;;;3.00;1.63;;;20.60;36.70;;;21.03;25.56;98142.59;4897125;28;123432;-93
2022/05/30 12:12:27;;;;;;;3.43;1.40;;;20.60;36.10;;;21.02;25.90;98149.41;4886756;28;114259;-94
2022/05/30 12:15:15;;;;;;;3.07;1.50;;;20.60;36.30;;;20.95;25.72;98153.03;4883418;28;112199;-93
2022/05/30 12:24:30;;;;;;;1.87;1.43;;;20.50;36.00;;;21.09;24.93;98140.19;4894384;28;115360;-93
2022/05/30 12:27:49;;;;;;;3.10;1.50;;;20.60;35.40;;;21.15;25.42;98139.41;4863224;28;112531;-93
2022/05/30 12:30:36;;;;;;;2.40;1.77;;;20.60;35.90;;;21.30;25.53;98145.03;4815939;29;123853;-93
2022/05/30 12:33:31;;;;;;;2.90;1.10;;;20.70;36.30;;;21.43;25.48;98140.66;4812672;29;123473;-95
2022/05/30 12:36:36;;;;;;;1.30;1.20;;;20.80;36.40;;;21.56;25.13;98141.84;4815767;29;114870;-93
2022/05/30 12:39:35;;;;;;;1.60;1.23;;;20.90;36.00;;;21.70;25.25;98143.84;4779816;29;112762;-94
2022/05/30 12:42:33;;;;;;;2.60;1.17;;;21.10;36.70;;;21.80;25.12;98131.78;4812366;29;124469;-96
2022/05/30 12:45:35;;;;;;;1.60;1.30;;;21.20;35.50;;;21.98;25.40;98143.03;4807181;29;124296;-95
2022/05/30 12:48:36;;;;;;;1.40;1.30;;;21.30;36.10;;;22.13;25.04;98138.16;4798307;29;114879;-94
2022/05/30 12:51:26;;;;;;;2.13;1.50;;;21.50;35.70;;;22.28;24.84;98144.59;4787642;29;114210;-93
2022/05/30 12:57:44;;;;;;;2.60;1.50;;;21.80;35.70;;;22.60;24.14;98141.66;4816725;29;124555;-93
2022/05/30 13:00:20;;;;;;;2.80;1.30;;;21.90;34.60;;;22.63;23.81;98137.22;4798526;29;114946;-95
2022/05/30 13:07:26;;;;;;;1.20;1.10;;;22.10;33.60;;;22.52;23.54;98137.25;4825903;29;124557;-95
2022/05/30 13:10:50;;;;;;;2.60;1.27;;;22.10;33.80;;;22.62;23.52;98141.22;4863892;29;123460;-95
2022/05/30 13:14:15;;;;;;;2.17;1.37;;;22.10;33.50;;;22.80;23.96;98144.75;4896672;28;114315;-95
2022/05/30 13:21:20;;;;;;;1.30;1.20;;;22.40;33.60;;;23.08;23.88;98143.03;4877200;29;124659;-94
2022/05/30 13:23:48;;;;;;;1.70;1.20;;;22.50;33.90;;;23.28;23.15;98132.81;4875410;29;123637;-95
2022/05/30 13:26:53;;;;;;;11.20;1.50;;;22.60;33.40;;;23.24;20.26;98128.41;4873984;29;113862;-93
2022/05/30 13:29:40;;;;;;;2.30;1.60;;;22.70;29.20;;;23.01;21.08;98138.22;4893778;28;114708;-94
2022/05/30 13:32:21;;;;;;;2.40;1.43;;;22.60;29.10;;;22.86;21.13;98134.69;4834693;28;124133;-94
2022/05/30 13:34:56;;;;;;;1.83;1.40;;;22.40;29.50;;;22.75;22.04;98139.53;4910279;28;123445;-93
2022/05/30 13:38:21;;;;;;;2.30;1.30;;;22.40;30.20;;;22.82;22.16;98142.34;4894857;28;114539;-95
2022/05/30 13:44:34;;;;;;;1.37;1.07;;;22.40;31.40;;;23.11;22.61;98147.84;4897916;28;125159;-93
2022/05/30 13:47:57;;;;;;;1.20;0.97;;;22.50;32.20;;;23.33;22.47;98146.47;4879652;28;124401;-93
2022/05/30 13:50:26;;;;;;;3.97;1.87;;;22.70;31.50;;;23.52;22.53;98141.50;4896177;28;114772;-94
2022/05/30 13:52:53;;;;;;;3.07;1.23;;;22.80;31.90;;;23.71;22.20;98146.59;4883787;28;113585;-94
2022/05/30 13:55:27;;;;;;;1.90;1.60;;;23.00;31.70;;;23.85;21.95;98144.84;4901026;28;123603;-94
2022/05/30 13:57:55;;;;;;;2.27;1.60;;;23.20;31.70;;;23.96;21.86;98122.97;4845342;29;121699;-94
2022/05/30 14:01:04;;;;;;;2.07;1.40;;;23.20;31.30;;;24.02;21.44;98132.59;4849129;29;114111;-94
2022/05/30 14:07:49;;;;;;;2.67;1.53;;;23.40;31.10;;;24.36;21.74;98128.97;4813824;29;123994;-95
2022/05/30 14:10:23;;;;;;;4.23;1.30;;;23.80;31.30;;;24.53;21.62;98122.34;4821242;29;123379;-93
2022/05/30 14:12:51;;;;;;;1.50;1.40;;;23.80;31.30;;;24.63;21.71;98129.06;4803316;29;114479;-93
2022/05/30 14:15:33;;;;;;;2.20;1.20;;;23.90;31.20;;;24.79;21.88;98117.16;4803251;29;114119;-94
2022/05/30 14:18:28;;;;;;;1.90;1.20;;;24.10;31.70;;;25.01;21.58;98117.66;4814057;29;123876;-94
2022/05/30 14:20:59;;;;;;;1.30;1.10;;;24.30;31.50;;;25.18;21.62;98121.47;4800733;29;124446;-95
2022/05/30 14:23:26;;;;;;;1.47;1.20;;;24.40;31.40;;;25.23;21.24;98123.81;4803737;29;113386;-94
2022/05/30 14:25:54;;;;;;;1.13;1.03;;;24.60;31.30;;;25.18;21.42;98121.47;4805974;29;112315;-95
2022/05/30 14:28:32;;;;;;;1.20;1.10;;;24.60;30.80;;;25.08;21.24;98114.72;4797992;29;123990;-94
2022/05/30 14:31:19;;;;;;;1.40;1.30;;;24.70;30.80;;;24.99;21.50;98112.44;4786921;29;123716;-93
2022/05/30 14:34:18;;;;;;;1.23;1.13;;;24.60;30.60;;;24.91;21.49;98113.75;4801846;29;113315;-94
2022/05/30 14:36:54;;;;;;;1.10;0.90;;;24.50;30.70;;;24.95;21.65;98108.06;4800852;29;113036;-94
2022/05/30 14:39:25;;;;;;;1.37;1.10;;;24.50;30.90;;;24.97;21.61;98117.72;4804171;29;124427;-94
2022/05/30 14:42:02;;;;;;;2.30;0.93;;;24.50;30.90;;;24.93;21.56;98114.13;4799701;29;124201;-94
2022/05/30 14:44:37;;;;;;;1.93;1.00;;;24.50;30.80;;;24.89;21.58;98110.56;4784790;29;114291;-94
2022/05/30 14:47:10;;;;;;;1.47;1.00;;;24.50;30.70;;;24.89;21.29;98121.88;4811151;29;113457;-92
2022/05/30 14:49:50;;;;;;;1.40;1.10;;;24.40;30.60;;;24.89;21.30;98113.38;4854852;29;123938;-93
2022/05/30 14:52:32;;;;;;;2.57;1.33;;;24.40;30.60;;;24.83;20.85;98109.44;4855042;28;123784;-95
2022/05/30 14:55:16;;;;;;;2.37;1.40;;;24.40;29.60;;;24.85;20.73;98115.44;4857640;28;113663;-94
2022/05/30 14:57:46;;;;;;;3.33;1.30;;;24.30;29.70;;;24.88;21.10;98118.25;4844968;29;116007;-94
2022/05/30 15:00:51;;;;;;;1.70;1.30;;;24.30;29.70;;;24.85;20.85;98109.78;4884781;28;123430;-94
2022/05/30 15:07:02;;;;;;;1.23;1.03;;;24.30;29.60;;;24.94;20.88;98118.56;4878956;28;113777;-92
2022/05/30 15:09:32;;;;;;;2.10;1.03;;;24.40;29.90;;;25.06;20.97;98125.66;4885394;28;113531;-91
2022/05/30 15:11:59;;;;;;;1.37;1.07;;;24.50;30.00;;;25.21;20.81;98120.63;4880723;28;123575;-93
2022/05/30 15:14:28;;;;;;;1.23;1.10;;;24.50;30.00;;;25.39;20.89;98118.31;4879334;28;123391;-93
2022/05/30 15:16:58;;;;;;;1.33;1.20;;;24.70;30.00;;;25.57;20.39;98115.97;4862872;28;114816;-93
2022/05/30 15:19:25;;;;;;;1.97;1.00;;;24.80;29.90;;;25.70;20.48;98126.69;4872361;28;113745;-95
2022/05/30 15:21:56;;;;;;;1.23;1.10;;;24.90;29.70;;;25.77;20.32;98129.41;4858797;28;121932;-94
2022/05/30 15:24:27;;;;;;;1.50;1.10;;;25.00;29.60;;;25.86;19.78;98121.16;4848966;28;123004;-91
2022/05/30 15:26:54;;;;;;;3.30;1.57;;;25.10;29.20;;;25.88;19.23;98135.69;4858953;28;114394;-93
2022/05/30 15:29:22;;;;;;;1.97;1.60;;;25.20;28.00;;;25.83;19.65;98122.00;4872558;28;112988;-95
2022/05/30 15:31:51;;;;;;;2.67;2.00;;;25.20;28.40;;;25.78;19.88;98123.28;4868541;28;123914;-94
2022/05/30 15:34:18;;;;;;;1.47;1.30;;;25.30;28.40;;;25.79;19.67;98122.06;4852430;28;123797;-94
2022/05/30 15:36:45;;;;;;;1.40;1.10;;;25.30;28.30;;;25.84;19.72;98131.31;4872393;28;115218;-94
2022/05/30 15:39:16;;;;;;;1.93;1.20;;;25.30;28.50;;;25.87;19.70;98122.78;4876960;28;114863;-94
2022/05/30 15:41:50;;;;;;;1.83;1.30;;;25.30;28.60;;;25.90;19.38;98126.75;4867999;28;123299;-92
2022/05/30 15:44:21;;;;;;;4.70;1.47;;;25.30;27.80;;;25.79;19.01;98116.41;4874632;28;122881;-93
2022/05/30 15:46:49;;;;;;;1.23;1.13;;;25.30;27.80;;;25.83;19.60;98118.38;4857157;28;113468;-94
2022/05/30 15:49:20;;;;;;;1.20;1.00;;;25.30;28.30;;;25.97;19.09;98116.09;4840347;28;114044;-95
2022/05/30 15:51:48;;;;;;;2.60;1.50;;;25.40;28.10;;;25.95;19.03;98121.41;4874737;28;124283;-91
2022/05/30 15:57:19;;;;;;;1.10;0.90;;;25.30;28.20;;;26.09;19.29;98116.72;4874092;28;114758;-91
2022/05/30 15:59:52;;;;;;;5.43;1.30;;;25.50;28.40;;;26.21;19.10;98118.88;4870892;28;114642;-94
2022/05/30 16:02:21;;;;;;;1.53;1.10;;;25.60;28.40;;;26.29;19.56;98125.22;4872041;28;123927;-94
2022/05/30 16:04:48;;;;;;;1.30;1.00;;;25.60;28.10;;;26.41;19.68;98124.53;4859059;28;125799;-94
2022/05/30 16:07:16;;;;;;;1.00;0.90;;;25.70;28.40;;;26.60;19.27;98128.66;4871562;28;114319;-93
2022/05/30 16:09:49;;;;;;;1.77;1.20;;;25.80;28.50;;;26.78;19.33;98122.59;4863608;28;114528;-93
2022/05/30 16:12:30;;;;;;;1.57;1.10;;;26.00;28.50;;;26.96;19.15;98119.38;4872482;28;124189;-93
2022/05/30 16:14:58;;;;;;;1.20;1.00;;;26.20;28.30;;;27.05;19.00;98117.50;4848410;28;122986;-93
2022/05/30 16:17:26;;;;;;;1.90;1.30;;;26.30;28.10;;;27.06;18.41;98110.63;4870834;28;113533;-94
2022/05/30 16:19:52;;;;;;;1.20;1.10;;;26.40;27.30;;;27.07;18.80;98106.53;4864820;28;113938;-91
2022/05/30 16:22:26;;;;;;;1.10;0.90;;;26.40;27.60;;;27.10;18.49;98119.03;4871138;28;124016;-90
2022/05/30 16:24:54;;;;;;;1.50;1.20;;;26.50;27.50;;;27.05;18.45;98113.88;4861954;28;123778;-92
2022/05/30 16:27:23;;;;;;;2.57;1.50;;;26.50;27.00;;;26.90;18.24;98115.47;4871181;28;116369;-92
2022/05/30 16:29:50;;;;;;;3.63;1.33;;;26.40;26.40;;;26.77;18.69;98118.97;4871272;28;114873;-91
2022/05/30 16:32:17;;;;;;;1.40;1.27;;;26.40;26.90;;;26.74;18.71;98122.69;4872793;28;122197;-91
2022/05/30 16:34:43;;;;;;;1.93;1.00;;;26.30;26.90;;;26.78;18.70;98117.72;4874070;28;122458;-91
2022/05/30 16:37:10;;;;;;;1.53;1.00;;;26.30;27.30;;;26.88;18.60;98111.03;4866069;28;112251;-91
2022/05/30 16:39:37;;;;;;;1.50;1.17;;;26.30;27.50;;;27.01;18.82;98108.31;4870788;28;114076;-91
2022/05/30 16:42:05;;;;;;;1.87;1.27;;;26.40;27.60;;;27.10;18.84;98104.84;4859017;28;124084;-91
2022/05/30 16:44:32;;;;;;;1.43;1.27;;;26.40;27.20;;;27.16;18.82;98103.09;4872420;28;123928;-92
2022/05/30 16:47:01;;;;;;;1.27;1.00;;;26.50;27.40;;;27.24;18.77;98110.25;4870607;28;114178;-88
2022/05/30 16:49:30;;;;;;;1.33;0.80;;;26.60;27.50;;;27.36;18.49;98110.78;4849244;28;114132;-94
2022/05/30 16:51:59;;;;;;;1.33;1.03;;;26.70;27.50;;;27.43;18.71;98116.25;4873772;28;123279;-92
2022/05/30 16:54:27;;;;;;;1.30;1.10;;;26.70;27.40;;;27.50;18.89;98124.59;4858642;28;122401;-91
2022/05/30 16:56:57;;;;;;;1.30;1.00;;;26.80;27.30;;;27.58;18.44;98131.69;4870799;28;113538;-92
2022/05/30 16:59:25;;;;;;;2.30;1.33;;;26.90;27.50;;;27.61;18.13;98122.28;4870080;28;113692;-91
2022/05/30 17:01:52;;;;;;;1.43;1.03;;;26.90;26.90;;;27.53;18.26;98120.88;4874627;28;124698;-90
2022/05/30 17:04:19;;;;;;;1.77;1.20;;;26.90;27.00;;;27.48;18.42;98127.06;4871281;28;124084;-91
2022/05/30 17:06:46;;;;;;;1.70;1.33;;;26.90;27.10;;;27.46;18.52;98126.75;4867248;28;113393;-90
2022/05/30 17:09:20;;;;;;;1.60;1.00;;;26.90;26.90;;;27.41;18.47;98122.38;4872060;28;113816;-92
2022/05/30 17:11:48;;;;;;;1.40;1.10;;;26.90;27.00;;;27.41;18.78;98125.22;4868769;28;124493;-91
2022/05/30 17:14:15;;;;;;;1.10;0.97;;;26.90;27.10;;;27.44;18.62;98126.38;4867439;28;124568;-91
2022/05/30 17:16:45;;;;;;;1.40;0.97;;;26.90;27.10;;;27.46;18.47;98129.56;4873649;28;114178;-91
2022/05/30 17:19:13;;;;;;;1.10;1.00;;;26.90;27.00;;;27.47;18.37;98136.84;4870177;28;114846;-90
2022/05/30 17:21:41;;;;;;;1.30;1.20;;;26.90;27.10;;;27.52;18.69;98136.31;4871359;28;124066;-92
2022/05/30 17:24:09;;;;;;;2.03;1.13;;;26.90;27.10;;;27.58;18.19;98140.19;4867576;28;123853;-91
2022/05/30 17:29:46;;;;;;;2.70;1.20;;;27.00;27.00;;;27.68;18.49;98139.13;4750200;29;114878;-90
2022/05/30 17:32:18;;;;;;;1.60;0.97;;;27.10;27.10;;;27.74;18.46;98145.88;4760798;29;124629;-91
2022/05/30 17:34:45;;;;;;;3.03;1.30;;;27.10;27.00;;;27.63;17.67;98142.50;4812590;28;122778;-93
2022/05/30 17:37:12;;;;;;;1.20;1.10;;;27.00;26.30;;;27.53;17.92;98137.91;4873361;28;113344;-92
2022/05/30 17:39:39;;;;;;;1.93;1.53;;;27.00;26.50;;;27.51;18.38;98140.38;4871180;28;113672;-93
2022/05/30 17:42:06;;;;;;;1.20;0.93;;;27.00;26.60;;;27.52;18.34;98142.78;4871776;28;123967;-92
2022/05/30 17:44:33;;;;;;;1.57;1.10;;;27.00;26.80;;;27.57;18.42;98149.19;4868856;28;123813;-90
2022/05/30 17:47:11;;;;;;;1.47;0.90;;;27.00;26.90;;;27.59;18.56;98147.47;4874265;28;114339;-90
2022/05/30 17:49:48;;;;;;;1.43;1.10;;;27.00;26.90;;;27.59;18.15;98155.19;4841424;28;113950;-92
2022/05/30 17:52:55;;;;;;;1.40;0.90;;;27.10;26.90;;;27.52;18.69;98141.97;4873752;28;123078;-92
2022/05/30 17:55:25;;;;;;;2.80;1.20;;;27.00;26.80;;;27.48;18.42;98138.44;4876196;28;125319;-90
2022/05/30 17:57:55;;;;;;;1.93;1.20;;;27.00;26.80;;;27.40;18.21;98140.63;4844621;28;113135;-91
2022/05/30 18:00:24;;;;;;;1.83;1.23;;;27.00;26.80;;;27.29;18.38;98146.56;4860037;28;113212;-92
2022/05/30 18:02:51;;;;;;;1.80;1.30;;;26.90;26.80;;;27.16;18.87;98150.50;4851912;28;122564;-92
2022/05/30 18:05:18;;;;;;;2.43;1.50;;;26.80;26.80;;;27.00;18.53;98151.25;4863491;28;123006;-91
2022/05/30 18:07:59;;;;;;;1.43;1.30;;;26.70;26.70;;;26.82;18.97;98151.69;4848286;28;114602;-93
2022/05/30 18:10:36;;;;;;;1.50;1.20;;;26.60;26.70;;;26.64;18.66;98152.84;4853400;28;114539;-94
2022/05/30 18:13:37;;;;;;;1.20;1.10;;;26.40;26.80;;;26.44;19.17;98152.03;4843761;28;123904;-92
2022/05/30 18:16:43;;;;;;;1.50;1.27;;;26.30;26.80;;;26.22;19.46;98148.78;4852020;28;123771;-92
2022/05/30 18:19:36;;;;;;;3.83;1.13;;;26.10;27.00;;;26.10;19.23;98152.28;4852534;28;114366;-92
2022/05/30 18:22:40;;;;;;;1.33;1.00;;;25.90;27.20;;;25.91;19.62;98154.63;4852844;28;113129;-93
2022/05/30 18:25:27;;;;;;;1.40;1.10;;;25.70;27.50;;;25.81;19.88;98154.78;4856552;28;123945;-96
2022/05/30 18:27:58;;;;;;;3.77;1.70;;;25.60;27.80;;;25.71;20.09;98154.56;4867059;28;123427;-89
2022/05/30 18:30:30;;;;;;;1.30;1.20;;;25.50;28.10;;;25.61;20.25;98166.84;4873151;28;114046;-93
2022/05/30 18:33:20;;;;;;;1.30;1.10;;;25.30;28.00;;;25.50;20.46;98166.22;4868477;28;113173;-91
2022/05/30 18:35:58;;;;;;;1.30;1.20;;;25.20;28.00;;;25.34;20.10;98158.38;4873822;28;124503;-89
2022/05/30 18:38:51;;;;;;;1.33;1.10;;;25.10;28.00;;;25.20;20.49;98164.25;4860588;28;123511;-88
2022/05/30 18:41:53;;;;;;;1.10;0.90;;;25.00;28.20;;;25.05;20.68;98170.09;4865439;28;113100;-93
2022/05/30 18:44:51;;;;;;;1.63;1.17;;;24.80;28.20;;;24.90;20.86;98171.50;4872167;28;113711;-92
2022/05/30 18:47:29;;;;;;;1.17;1.00;;;24.70;28.40;;;24.77;20.81;98171.28;4874639;28;123132;-94
2022/05/30 18:50:09;;;;;;;1.20;1.00;;;24.50;28.40;;;24.64;20.84;98179.50;4869798;28;123957;-93
2022/05/30 18:52:40;;;;;;;1.40;1.07;;;24.40;28.40;;;24.53;20.86;98170.38;4826705;28;114414;-92
2022/05/30 18:55:14;;;;;;;1.50;1.00;;;24.30;28.50;;;24.43;20.98;98174.09;4865192;28;113985;-93
2022/05/30 18:58:15;;;;;;;1.67;1.20;;;24.20;28.60;;;24.27;21.28;98171.03;4885071;28;124589;-94
2022/05/30 19:00:42;;;;;;;1.70;1.33;;;24.10;28.70;;;24.16;21.46;98171.16;4873760;28;124882;-93
2022/05/30 19:03:15;;;;;;;1.63;1.07;;;23.90;28.80;;;24.04;21.63;98166.81;4875893;28;115323;-92
2022/05/30 19:05:42;;;;;;;2.00;1.20;;;23.80;28.90;;;23.95;21.59;98172.16;4880542;28;113702;-93
2022/05/30 19:08:10;;;;;;;1.50;1.10;;;23.70;29.00;;;23.81;21.68;98168.25;4872522;28;124096;-91
2022/05/30 19:11:12;;;;;;;2.33;1.10;;;23.60;29.10;;;23.66;21.77;98160.31;4881481;28;124276;-90
2022/05/30 19:13:52;;;;;;;1.10;1.00;;;23.50;29.30;;;23.53;22.20;98168.47;4881214;28;114323;-92
2022/05/30 19:19:23;;;;;;;1.30;1.10;;;23.20;29.50;;;23.29;22.76;98173.88;4879619;28;127024;-91
2022/05/30 19:21:49;;;;;;;1.30;1.00;;;23.00;29.70;;;23.19;22.78;98174.75;4877975;28;122637;-91
2022/05/30 19:24:16;;;;;;;4.73;1.00;;;22.90;29.80;;;23.08;23.01;98176.84;4875850;28;113967;-90
2022/05/30 19:26:43;;;;;;;1.47;1.37;;;22.80;30.00;;;22.98;23.03;98183.34;4868243;28;114125;-91
2022/05/30 19:29:13;;;;;;;1.13;1.03;;;22.70;30.10;;;22.88;23.19;98182.94;4865447;28;123649;-91
2022/05/30 19:31:43;;;;;;;2.37;1.27;;;22.60;30.30;;;22.79;23.26;98193.84;4868372;28;124231;-89
2022/05/30 19:34:11;;;;;;;1.70;1.30;;;22.50;30.40;;;22.68;23.41;98195.91;4872227;28;114146;-91
2022/05/30 19:36:39;;;;;;;2.10;1.50;;;22.40;30.60;;;22.59;23.52;98203.97;4853192;28;113685;-91
2022/05/30 19:39:08;;;;;;;4.17;1.50;;;22.30;30.80;;;22.49;23.59;98209.25;4886047;28;123897;-93
2022/05/30 19:45:18;;;;;;;2.20;1.30;;;22.10;31.00;;;22.20;24.18;98213.34;4898623;28;115305;-93
2022/05/30 19:47:45;;;;;;;1.30;1.20;;;21.90;31.20;;;22.10;24.25;98220.56;4873358;28;113915;-92
2022/05/30 19:50:12;;;;;;;1.40;1.10;;;21.80;31.40;;;22.03;24.20;98224.19;4861257;28;123105;-94
2022/05/30 19:52:39;;;;;;;1.53;1.17;;;21.70;31.60;;;21.94;24.16;98228.63;4871240;28;124132;-91
2022/05/30 19:55:11;;;;;;;2.50;1.20;;;21.60;32.00;;;21.84;25.04;98230.22;4878856;28;115429;-95
2022/05/30 19:57:41;;;;;;;3.43;1.43;;;21.60;32.20;;;21.77;24.98;98235.84;4878674;28;114338;-94
2022/05/30 20:00:46;;;;;;;3.57;1.40;;;21.50;32.40;;;21.63;25.12;98231.03;4867167;28;123759;-93
2022/05/30 20:03:16;;;;;;;1.40;0.97;;;21.30;32.50;;;21.55;25.27;98241.47;4875470;28;123249;-94
2022/05/30 20:09:24;;;;;;;1.50;1.27;;;21.10;32.90;;;21.32;25.35;98247.41;4904021;28;115871;-91
2022/05/30 20:15:52;;;;;;;2.53;1.10;;;20.90;33.30;;;21.10;25.71;98254.97;4904344;28;124832;-77
2022/05/30 20:22:01;;;;;;;2.17;1.60;;;20.70;33.70;;;20.90;26.14;98265.75;4903720;28;116271;-78
2022/05/30 20:28:12;;;;;;;1.20;1.10;;;20.50;34.10;;;20.71;26.49;98278.09;4903477;28;124777;-85
2022/05/30 20:34:21;;;;;;;2.97;1.37;;;20.30;34.40;;;20.55;26.80;98266.34;4900699;28;116574;-78
2022/05/30 20:36:49;;;;;;;1.20;1.10;;;20.20;34.60;;;20.50;26.79;98266.72;4903401;28;125031;-92
2022/05/30 20:39:18;;;;;;;2.70;1.30;;;20.10;34.70;;;20.45;26.83;98270.69;4880400;28;123677;-92
2022/05/30 20:44:31;;;;;;;2.03;1.13;;;20.00;35.00;;;20.37;27.19;98273.84;4876381;28;114972;-92
2022/05/30 20:46:59;;;;;;;1.70;1.37;;;19.90;35.20;;;20.34;27.37;98269.00;4873402;28;123353;-92
2022/05/30 20:50:03;;;;;;;1.30;1.10;;;20.70;36.00;;;20.28;27.43;98263.78;4854314;28;123352;-94
2022/05/30 20:52:50;;;;;;;1.20;1.10;;;19.90;35.50;;;20.25;27.35;98264.53;4878631;28;115090;-93
2022/05/30 20:55:19;;;;;;;1.47;1.10;;;19.80;35.60;;;20.21;27.45;98272.13;4871543;28;114353;-92
2022/05/30 20:57:53;;;;;;;1.67;1.13;;;19.80;35.80;;;20.16;27.74;98271.69;4865681;28;123965;-89
2022/05/30 21:00:23;;;;;;;1.30;1.20;;;19.70;35.80;;;20.10;27.62;98268.44;4848261;28;123521;-91
2022/05/30 21:03:09;;;;;;;2.70;1.57;;;19.70;36.00;;;20.06;27.60;98276.03;4863556;28;114620;-92
2022/05/30 21:05:37;;;;;;;1.57;1.37;;;19.60;36.00;;;20.01;27.91;98279.97;4881526;28;113304;-92
2022/05/30 21:08:04;;;;;;;2.20;1.53;;;19.50;36.20;;;19.98;28.12;98285.56;4853150;28;123621;-91
2022/05/30 21:10:34;;;;;;;1.73;1.20;;;19.50;36.30;;;19.94;28.23;98285.56;4873058;28;122955;-91
2022/05/30 21:13:01;;;;;;;2.20;1.57;;;19.50;36.50;;;19.91;28.23;98274.28;4869731;28;113775;-91
2022/05/30 21:15:29;;;;;;;1.43;1.30;;;19.50;36.60;;;19.86;28.59;98279.06;4869957;28;113145;-91
2022/05/30 21:18:07;;;;;;;1.70;1.30;;;20.20;37.40;;;19.82;28.22;98280.22;4873792;28;124330;-90
2022/05/30 21:20:37;;;;;;;1.20;1.10;;;19.40;36.90;;;19.77;28.38;98277.78;4853571;28;122614;-90
2022/05/30 21:23:08;;;;;;;2.17;1.40;;;19.30;37.00;;;19.70;28.91;98281.31;4868971;28;114285;-92
2022/05/30 21:25:37;;;;;;;1.67;1.50;;;19.30;37.10;;;19.65;28.57;98273.25;4872485;28;114280;-92
2022/05/30 21:28:05;;;;;;;2.20;1.30;;;19.20;37.20;;;19.61;28.66;98275.19;4853889;28;124094;-93
2022/05/30 21:30:34;;;;;;;1.77;1.27;;;19.20;37.30;;;19.57;29.03;98283.56;4874342;28;122249;-91
2022/05/30 21:33:28;;;;;;;1.50;1.40;;;19.10;37.40;;;19.54;28.99;98287.16;4875880;28;114238;-91
2022/05/30 21:36:02;;;;;;;1.63;1.53;;;19.10;37.60;;;19.49;29.05;98283.91;4849330;29;113542;-91
2022/05/30 21:38:29;;;;;;;1.63;1.27;;;19.00;37.70;;;19.45;29.17;98281.06;4857809;28;122743;-92
2022/05/30 21:40:57;;;;;;;1.50;1.40;;;19.00;37.80;;;19.39;29.11;98291.78;4846921;28;122295;-91
2022/05/30 21:43:23;;;;;;;2.43;1.33;;;18.90;37.90;;;19.37;29.33;98287.75;4854865;28;115209;-92
2022/05/30 21:45:51;;;;;;;3.63;1.40;;;18.90;38.00;;;19.32;29.38;98288.13;4856092;28;112839;-92